createdAt,value
2022-09-27T00:02:26.468Z,11.10
2022-09-27T00:04:55.828Z,11.10
2022-09-27T00:07:23.476Z,11.10
2022-09-27T00:09:51.206Z,11.10
2022-09-27T00:12:18.843Z,11.10
2022-09-27T00:14:46.475Z,11.00
2022-09-27T00:17:14.136Z,11.00
2022-09-27T00:19:41.802Z,11.10
2022-09-27T00:22:10.807Z,11.20
2022-09-27T00:24:38.539Z,11.10
2022-09-27T00:27:06.170Z,11.20
2022-09-27T00:29:33.856Z,11.20
2022-09-27T00:32:01.708Z,11.20
2022-09-27T00:34:29.355Z,11.20
2022-09-27T00:36:56.994Z,11.30
2022-09-27T00:39:26.364Z,11.30
2022-09-27T00:41:54.012Z,11.30
2022-09-27T00:44:40.152Z,11.30
2022-09-27T00:47:10.894Z,11.30
2022-09-27T00:49:39.589Z,11.20
2022-09-27T00:52:09.608Z,11.30
2022-09-27T00:54:41.608Z,11.30
2022-09-27T00:57:09.398Z,11.30
2022-09-27T00:59:38.789Z,11.40
2022-09-27T01:02:07.241Z,11.30
2022-09-27T01:04:36.450Z,11.40
2022-09-27T01:07:04.142Z,11.40
2022-09-27T01:09:31.934Z,11.50
2022-09-27T01:12:03.674Z,11.50
2022-09-27T01:14:40.243Z,11.50
2022-09-27T01:17:13.519Z,11.60
2022-09-27T01:19:59.923Z,11.60
2022-09-27T01:22:29.256Z,11.50
2022-09-27T01:25:03.184Z,11.50
2022-09-27T01:27:50.107Z,11.50
2022-09-27T01:30:29.174Z,11.40
2022-09-27T01:33:03.635Z,11.40
2022-09-27T01:35:36.593Z,11.50
2022-09-27T01:38:11.007Z,11.40
2022-09-27T01:40:42.366Z,11.40
2022-09-27T01:43:13.126Z,11.50
2022-09-27T01:45:44.810Z,11.40
2022-09-27T01:48:14.702Z,11.40
2022-09-27T01:50:44.236Z,11.40
2022-09-27T01:53:14.542Z,11.40
2022-09-27T01:55:42.588Z,11.40
2022-09-27T01:58:13.440Z,11.30
2022-09-27T02:00:43.834Z,11.40
2022-09-27T02:03:13.043Z,11.30
2022-09-27T02:05:43.032Z,11.30
2022-09-27T02:08:16.525Z,11.20
2022-09-27T02:10:46.198Z,11.20
2022-09-27T02:13:18.162Z,11.20
2022-09-27T02:15:50.749Z,11.10
2022-09-27T02:18:20.041Z,11.10
2022-09-27T02:20:50.881Z,11.10
2022-09-27T02:23:22.190Z,11.00
2022-09-27T02:25:52.702Z,11.00
2022-09-27T02:28:23.937Z,11.00
2022-09-27T02:30:53.050Z,11.00
2022-09-27T02:33:22.870Z,11.00
2022-09-27T02:35:51.022Z,10.90
2022-09-27T02:38:19.130Z,11.00
2022-09-27T02:40:47.896Z,11.00
2022-09-27T02:43:17.219Z,10.90
2022-09-27T02:45:52.982Z,10.90
2022-09-27T02:48:26.666Z,10.90
2022-09-27T02:51:18.354Z,10.90
2022-09-27T02:53:53.580Z,10.90
2022-09-27T02:56:26.056Z,10.90
2022-09-27T02:58:59.299Z,10.90
2022-09-27T03:01:30.899Z,10.90
2022-09-27T03:04:04.242Z,10.90
2022-09-27T03:06:33.122Z,10.80
2022-09-27T03:09:00.764Z,10.80
2022-09-27T03:11:28.455Z,10.70
2022-09-27T03:14:08.357Z,10.70
2022-09-27T03:16:36.756Z,10.80
2022-09-27T03:19:05.794Z,10.70
2022-09-27T03:21:33.449Z,10.60
2022-09-27T03:24:01.227Z,10.60
2022-09-27T03:26:28.969Z,10.60
2022-09-27T03:28:56.606Z,10.60
2022-09-27T03:31:24.308Z,10.60
2022-09-27T03:33:52.022Z,10.50
2022-09-27T03:36:21.057Z,10.60
2022-09-27T03:38:48.839Z,10.60
2022-09-27T03:41:16.504Z,10.50
2022-09-27T03:43:44.170Z,10.40
2022-09-27T03:46:12.320Z,10.50
2022-09-27T03:48:40.029Z,10.60
2022-09-27T03:51:08.371Z,10.60
2022-09-27T03:53:37.379Z,10.50
2022-09-27T03:56:05.121Z,10.60
2022-09-27T03:58:32.762Z,10.70
2022-09-27T04:01:00.484Z,10.70
2022-09-27T04:03:28.151Z,10.60
2022-09-27T04:05:55.871Z,10.60
2022-09-27T04:08:23.726Z,10.70
2022-09-27T04:10:52.731Z,10.60
2022-09-27T04:13:20.477Z,10.70
2022-09-27T04:15:52.077Z,10.60
2022-09-27T04:18:20.098Z,10.60
2022-09-27T04:20:47.794Z,10.60
2022-09-27T04:23:15.467Z,10.50
2022-09-27T04:25:43.130Z,10.50
2022-09-27T04:28:12.923Z,10.30
2022-09-27T04:30:41.304Z,10.30
2022-09-27T04:33:09.140Z,10.20
2022-09-27T04:35:54.499Z,10.10
2022-09-27T04:38:23.991Z,10.00
2022-09-27T04:40:51.784Z,9.90
2022-09-27T04:43:20.905Z,9.90
2022-09-27T04:45:48.569Z,9.90
2022-09-27T04:48:16.249Z,9.80
2022-09-27T04:50:44.009Z,9.80
2022-09-27T04:53:14.111Z,9.80
2022-09-27T04:55:45.350Z,9.80
2022-09-27T04:58:13.003Z,9.80
2022-09-27T05:00:42.801Z,9.70
2022-09-27T05:03:10.484Z,9.70
2022-09-27T05:05:38.132Z,9.80
2022-09-27T05:08:05.933Z,9.70
2022-09-27T05:10:33.773Z,9.70
2022-09-27T05:13:01.411Z,9.80
2022-09-27T05:15:29.076Z,9.80
2022-09-27T05:17:58.197Z,9.70
2022-09-27T05:20:26.252Z,9.70
2022-09-27T05:22:53.963Z,9.70
2022-09-27T05:25:21.662Z,9.70
2022-09-27T05:27:50.419Z,9.60
2022-09-27T05:30:18.179Z,9.70
2022-09-27T05:32:48.067Z,9.70
2022-09-27T05:35:18.155Z,9.70
2022-09-27T05:37:51.739Z,9.70
2022-09-27T05:40:39.742Z,9.70
2022-09-27T05:43:07.031Z,9.70
2022-09-27T05:45:34.754Z,9.70
2022-09-27T05:48:03.167Z,9.70
2022-09-27T05:50:32.733Z,9.80
2022-09-27T05:53:00.393Z,9.80
2022-09-27T05:55:29.663Z,9.80
2022-09-27T05:57:58.360Z,9.80
2022-09-27T06:00:27.018Z,9.80
2022-09-27T06:02:55.974Z,9.80
2022-09-27T06:05:24.249Z,9.90
2022-09-27T06:07:53.833Z,9.90
2022-09-27T06:10:21.823Z,9.90
2022-09-27T06:12:50.263Z,10.00
2022-09-27T06:15:17.922Z,10.00
2022-09-27T06:17:45.597Z,10.00
2022-09-27T06:20:13.381Z,10.00
2022-09-27T06:22:41.238Z,10.10
2022-09-27T06:25:10.696Z,10.10
2022-09-27T06:27:38.356Z,10.10
2022-09-27T06:30:06.335Z,10.20
2022-09-27T06:32:34.002Z,10.20
2022-09-27T06:35:05.106Z,10.10
2022-09-27T06:37:32.755Z,10.20
2022-09-27T06:40:00.409Z,10.20
2022-09-27T06:42:30.462Z,10.20
2022-09-27T06:44:58.109Z,10.20
2022-09-27T06:47:26.655Z,10.20
2022-09-27T06:49:54.435Z,10.20
2022-09-27T06:52:22.088Z,10.20
2022-09-27T06:54:49.740Z,10.30
2022-09-27T06:57:37.515Z,10.30
2022-09-27T07:00:24.295Z,10.30
2022-09-27T07:02:52.230Z,10.30
2022-09-27T07:05:20.379Z,10.30
2022-09-27T07:07:48.799Z,10.30
2022-09-27T07:10:18.157Z,10.30
2022-09-27T07:12:48.759Z,10.40
2022-09-27T07:15:18.084Z,10.40
2022-09-27T07:17:45.746Z,10.40
2022-09-27T07:20:13.407Z,10.40
2022-09-27T07:22:42.391Z,10.50
2022-09-27T07:25:10.225Z,10.50
2022-09-27T07:27:38.691Z,10.50
2022-09-27T07:30:07.260Z,10.50
2022-09-27T07:32:36.793Z,10.60
2022-09-27T07:35:04.645Z,10.50
2022-09-27T07:37:32.912Z,10.60
2022-09-27T07:40:00.772Z,10.70
2022-09-27T07:42:29.128Z,10.70
2022-09-27T07:44:56.802Z,10.80
2022-09-27T07:47:25.007Z,10.80
2022-09-27T07:49:54.043Z,10.90
2022-09-27T07:52:22.187Z,10.90
2022-09-27T07:54:49.830Z,11.00
2022-09-27T07:57:17.761Z,11.10
2022-09-27T07:59:45.547Z,11.20
2022-09-27T08:02:15.144Z,11.40
2022-09-27T08:04:43.711Z,11.50
2022-09-27T08:07:14.466Z,11.60
2022-09-27T08:09:42.259Z,11.60
2022-09-27T08:12:10.610Z,11.60
2022-09-27T08:14:43.979Z,11.60
2022-09-27T08:17:15.889Z,11.70
2022-09-27T08:19:45.059Z,11.80
2022-09-27T08:22:14.831Z,11.90
2022-09-27T08:24:42.764Z,11.90
2022-09-27T08:27:12.026Z,11.90
2022-09-27T08:29:41.917Z,11.90
2022-09-27T08:32:10.073Z,12.00
2022-09-27T08:34:37.830Z,11.90
2022-09-27T08:37:05.769Z,11.90
2022-09-27T08:39:34.800Z,11.90
2022-09-27T08:42:06.640Z,12.00
2022-09-27T08:44:38.094Z,12.00
2022-09-27T08:47:10.387Z,12.10
2022-09-27T08:49:39.663Z,12.30
2022-09-27T08:52:09.060Z,12.40
2022-09-27T08:54:38.768Z,12.50
2022-09-27T08:57:10.550Z,13.00
2022-09-27T08:59:40.953Z,13.20
2022-09-27T09:02:14.579Z,13.50
2022-09-27T09:04:43.431Z,13.70
2022-09-27T09:07:21.893Z,14.00
2022-09-27T09:09:55.652Z,14.30
2022-09-27T09:12:45.975Z,14.30
2022-09-27T09:15:17.307Z,14.40
2022-09-27T09:17:51.194Z,14.50
2022-09-27T09:20:22.907Z,14.50
2022-09-27T09:23:07.597Z,14.50
2022-09-27T09:25:43.822Z,14.40
2022-09-27T09:28:19.404Z,14.50
2022-09-27T09:30:50.655Z,14.30
2022-09-27T09:33:23.018Z,14.20
2022-09-27T09:35:54.799Z,14.20
2022-09-27T09:38:24.485Z,14.20
2022-09-27T09:40:57.716Z,14.10
2022-09-27T09:43:28.461Z,14.10
2022-09-27T09:45:59.089Z,14.00
2022-09-27T09:48:30.908Z,14.00
2022-09-27T09:51:01.170Z,13.90
2022-09-27T09:53:34.891Z,13.80
2022-09-27T09:56:05.876Z,13.90
2022-09-27T09:58:38.124Z,13.80
2022-09-27T10:01:13.981Z,13.80
2022-09-27T10:03:41.998Z,13.70
2022-09-27T10:06:10.527Z,13.60
2022-09-27T10:08:38.178Z,13.60
2022-09-27T10:11:07.555Z,13.60
2022-09-27T10:13:35.964Z,13.70
2022-09-27T10:16:05.401Z,13.80
2022-09-27T10:18:33.360Z,14.00
2022-09-27T10:21:02.219Z,14.20
2022-09-27T10:23:30.232Z,14.20
2022-09-27T10:25:59.147Z,14.30
2022-09-27T10:28:32.700Z,14.30
2022-09-27T10:31:01.349Z,14.00
2022-09-27T10:33:31.548Z,13.80
2022-09-27T10:35:59.577Z,13.60
2022-09-27T10:38:28.529Z,13.30
2022-09-27T10:40:57.004Z,13.10
2022-09-27T10:43:34.000Z,12.90
2022-09-27T10:46:04.961Z,12.90
2022-09-27T10:48:32.732Z,12.90
2022-09-27T10:51:01.278Z,12.90
2022-09-27T10:53:30.135Z,12.80
2022-09-27T10:55:57.819Z,12.90
2022-09-27T10:58:27.450Z,13.00
2022-09-27T11:00:57.764Z,13.10
2022-09-27T11:03:29.151Z,13.20
2022-09-27T11:05:59.202Z,13.80
2022-09-27T11:08:32.111Z,14.60
2022-09-27T11:11:08.784Z,15.10
2022-09-27T11:13:36.811Z,15.30
2022-09-27T11:16:19.128Z,15.40
2022-09-27T11:18:51.154Z,15.40
2022-09-27T11:21:24.247Z,15.50
2022-09-27T11:24:01.513Z,15.50
2022-09-27T11:26:37.608Z,15.50
2022-09-27T11:29:12.531Z,15.60
2022-09-27T11:31:44.430Z,15.60
2022-09-27T11:34:21.832Z,15.60
2022-09-27T11:36:56.369Z,15.50
2022-09-27T11:39:24.655Z,15.30
2022-09-27T11:42:02.712Z,15.20
2022-09-27T11:44:36.494Z,15.30
2022-09-27T11:47:12.081Z,15.20
2022-09-27T11:49:56.744Z,15.20
2022-09-27T11:52:32.202Z,15.20
2022-09-27T11:55:05.366Z,15.30
2022-09-27T11:57:35.653Z,15.40
2022-09-27T12:00:07.147Z,15.40
2022-09-27T12:02:53.616Z,15.40
2022-09-27T12:05:26.426Z,15.30
2022-09-27T12:08:00.497Z,15.20
2022-09-27T12:10:28.326Z,15.00
2022-09-27T12:12:57.667Z,15.10
2022-09-27T12:15:26.323Z,15.10
2022-09-27T12:17:56.007Z,15.00
2022-09-27T12:20:26.389Z,15.20
2022-09-27T12:23:00.024Z,15.10
2022-09-27T12:25:31.267Z,15.20
2022-09-27T12:28:02.159Z,15.20
2022-09-27T12:30:31.213Z,15.20
2022-09-27T12:33:02.066Z,15.10
2022-09-27T12:35:33.692Z,14.90
2022-09-27T12:38:03.572Z,14.80
2022-09-27T12:40:33.999Z,15.10
2022-09-27T12:43:04.180Z,15.20
2022-09-27T12:45:39.946Z,15.20
2022-09-27T12:48:12.941Z,15.10
2022-09-27T12:50:44.149Z,14.80
2022-09-27T12:53:14.428Z,14.50
2022-09-27T12:55:56.432Z,14.30
2022-09-27T12:58:43.611Z,14.20
2022-09-27T13:01:17.844Z,14.10
2022-09-27T13:03:55.252Z,14.10
2022-09-27T13:06:31.730Z,14.10
2022-09-27T13:09:23.501Z,14.20
2022-09-27T13:11:55.843Z,14.20
2022-09-27T13:14:25.292Z,14.10
2022-09-27T13:16:52.972Z,14.20
2022-09-27T13:19:39.354Z,14.10
2022-09-27T13:22:09.243Z,14.10
2022-09-27T13:24:44.277Z,14.00
2022-09-27T13:27:29.935Z,13.90
2022-09-27T13:30:19.901Z,13.90
2022-09-27T13:33:17.650Z,13.80
2022-09-27T13:36:06.325Z,13.80
2022-09-27T13:38:34.100Z,13.80
2022-09-27T13:41:17.934Z,13.70
2022-09-27T13:43:54.679Z,13.60
2022-09-27T13:46:24.693Z,13.50
2022-09-27T13:48:55.096Z,13.40
2022-09-27T13:51:41.531Z,13.30
2022-09-27T13:54:30.179Z,13.40
2022-09-27T13:56:58.018Z,13.40
2022-09-27T13:59:27.915Z,13.40
2022-09-27T14:01:57.525Z,13.50
2022-09-27T14:04:27.314Z,13.70
2022-09-27T14:06:58.269Z,14.00
2022-09-27T14:09:27.256Z,14.20
2022-09-27T14:11:57.430Z,14.30
2022-09-27T14:14:26.172Z,14.30
2022-09-27T14:16:54.255Z,14.40
2022-09-27T14:19:22.918Z,14.30
2022-09-27T14:21:50.672Z,14.20
2022-09-27T14:24:24.257Z,14.10
2022-09-27T14:27:04.046Z,14.20
2022-09-27T14:29:33.415Z,14.20
2022-09-27T14:32:04.667Z,14.30
2022-09-27T14:34:32.325Z,14.40
2022-09-27T14:37:17.442Z,14.30
2022-09-27T14:39:47.555Z,14.30
2022-09-27T14:42:20.038Z,14.30
2022-09-27T14:44:47.763Z,14.30
2022-09-27T14:47:19.032Z,14.20
2022-09-27T14:49:48.283Z,14.00
2022-09-27T14:52:21.406Z,13.90
2022-09-27T14:54:58.220Z,13.70
2022-09-27T14:57:27.200Z,13.60
2022-09-27T14:59:55.054Z,13.40
2022-09-27T15:02:26.295Z,13.10
2022-09-27T15:04:54.454Z,12.80
2022-09-27T15:07:23.150Z,12.60
2022-09-27T15:09:51.751Z,12.30
2022-09-27T15:12:27.443Z,12.10
2022-09-27T15:14:56.612Z,12.00
2022-09-27T15:17:25.211Z,11.80
2022-09-27T15:20:03.375Z,11.70
2022-09-27T15:22:35.508Z,11.60
2022-09-27T15:25:19.602Z,11.60
2022-09-27T15:27:50.291Z,11.60
2022-09-27T15:30:19.136Z,11.50
2022-09-27T15:32:49.950Z,11.40
2022-09-27T15:35:21.171Z,11.50
2022-09-27T15:37:48.895Z,11.60
2022-09-27T15:40:31.558Z,11.60
2022-09-27T15:43:01.931Z,11.70
2022-09-27T15:45:30.288Z,11.80
2022-09-27T15:48:06.732Z,11.80
2022-09-27T15:50:38.299Z,11.80
2022-09-27T15:53:06.896Z,11.80
2022-09-27T15:55:37.150Z,11.70
2022-09-27T15:58:08.189Z,11.70
2022-09-27T16:00:36.937Z,11.50
2022-09-27T16:03:05.036Z,11.50
2022-09-27T16:05:33.173Z,11.40
2022-09-27T16:08:01.108Z,11.40
2022-09-27T16:10:31.564Z,11.50
2022-09-27T16:12:59.213Z,11.40
2022-09-27T16:15:28.235Z,11.50
2022-09-27T16:17:57.678Z,11.50
2022-09-27T16:20:27.429Z,11.60
2022-09-27T16:22:55.564Z,11.60
2022-09-27T16:25:23.460Z,11.70
2022-09-27T16:27:52.263Z,11.70
2022-09-27T16:30:20.463Z,11.70
2022-09-27T16:32:49.722Z,11.70
2022-09-27T16:35:18.614Z,11.70
2022-09-27T16:37:46.259Z,11.70
2022-09-27T16:40:15.158Z,11.60
2022-09-27T16:42:43.869Z,11.60
2022-09-27T16:45:15.652Z,11.60
2022-09-27T16:47:45.925Z,11.60
2022-09-27T16:50:33.085Z,11.70
2022-09-27T16:53:00.798Z,11.60
2022-09-27T16:55:28.922Z,11.60
2022-09-27T16:57:58.649Z,11.60
2022-09-27T17:00:26.642Z,11.60
2022-09-27T17:02:54.608Z,11.60
2022-09-27T17:05:23.860Z,11.50
2022-09-27T17:07:52.003Z,11.60
2022-09-27T17:10:19.676Z,11.60
2022-09-27T17:12:48.023Z,11.50
2022-09-27T17:15:16.213Z,11.40
2022-09-27T17:17:45.083Z,11.30
2022-09-27T17:20:13.055Z,11.10
2022-09-27T17:22:42.145Z,11.10
2022-09-27T17:25:10.255Z,11.00
2022-09-27T17:27:37.915Z,11.10
2022-09-27T17:30:06.960Z,11.00
2022-09-27T17:32:34.851Z,11.00
2022-09-27T17:35:02.689Z,10.90
2022-09-27T17:37:30.547Z,10.80
2022-09-27T17:39:59.526Z,10.80
2022-09-27T17:42:28.802Z,10.80
2022-09-27T17:44:56.457Z,10.80
2022-09-27T17:47:41.759Z,10.90
2022-09-27T17:50:28.747Z,10.80
2022-09-27T17:52:57.821Z,10.70
2022-09-27T17:55:27.460Z,10.70
2022-09-27T17:57:55.203Z,10.70
2022-09-27T18:00:22.955Z,10.80
2022-09-27T18:02:51.080Z,10.70
2022-09-27T18:05:21.111Z,10.70
2022-09-27T18:07:48.993Z,10.80
2022-09-27T18:10:17.747Z,10.80
2022-09-27T18:12:46.794Z,10.90
2022-09-27T18:15:16.495Z,10.90
2022-09-27T18:17:45.763Z,10.80
2022-09-27T18:20:13.728Z,10.70
2022-09-27T18:22:41.592Z,10.70
2022-09-27T18:25:11.171Z,10.70
2022-09-27T18:27:40.372Z,10.60
2022-09-27T18:30:10.506Z,10.50
2022-09-27T18:32:38.229Z,10.40
2022-09-27T18:35:06.930Z,10.40
2022-09-27T18:37:34.758Z,10.30
2022-09-27T18:40:02.665Z,10.30
2022-09-27T18:42:31.159Z,10.40
2022-09-27T18:44:58.877Z,10.30
2022-09-27T18:47:27.985Z,10.20
2022-09-27T18:49:55.730Z,10.20
2022-09-27T18:52:23.473Z,10.20
2022-09-27T18:54:51.119Z,10.00
2022-09-27T18:57:19.169Z,10.00
2022-09-27T18:59:48.039Z,9.90
2022-09-27T19:02:15.731Z,9.90
2022-09-27T19:04:44.742Z,9.90
2022-09-27T19:07:12.422Z,9.90
2022-09-27T19:09:40.074Z,9.90
2022-09-27T19:12:07.731Z,9.80
2022-09-27T19:14:35.371Z,9.80
2022-09-27T19:17:03.015Z,9.70
2022-09-27T19:19:30.688Z,9.70
2022-09-27T19:21:59.759Z,9.60
2022-09-27T19:24:28.064Z,9.60
2022-09-27T19:26:57.192Z,9.50
2022-09-27T19:29:24.841Z,9.50
2022-09-27T19:31:52.489Z,9.50
2022-09-27T19:34:20.439Z,9.60
2022-09-27T19:36:48.100Z,9.60
2022-09-27T19:39:17.268Z,9.60
2022-09-27T19:41:45.712Z,9.50
2022-09-27T19:44:13.669Z,9.60
2022-09-27T19:46:41.364Z,9.50
2022-09-27T19:49:09.058Z,9.50
2022-09-27T19:51:37.289Z,9.50
2022-09-27T19:54:05.043Z,9.50
2022-09-27T19:56:34.858Z,9.50
2022-09-27T19:59:06.825Z,9.50
2022-09-27T20:01:35.511Z,9.50
2022-09-27T20:04:03.330Z,9.50
2022-09-27T20:06:32.339Z,9.40
2022-09-27T20:09:02.857Z,9.40
2022-09-27T20:11:31.217Z,9.30
2022-09-27T20:14:00.418Z,9.30
2022-09-27T20:16:28.494Z,9.20
2022-09-27T20:18:56.859Z,9.20
2022-09-27T20:21:26.337Z,9.10
2022-09-27T20:23:55.147Z,9.00
2022-09-27T20:26:24.338Z,9.00
2022-09-27T20:28:52.636Z,8.90
2022-09-27T20:31:23.678Z,8.90
2022-09-27T20:33:51.401Z,8.80
2022-09-27T20:36:20.224Z,8.70
2022-09-27T20:38:49.075Z,8.70
2022-09-27T20:41:17.750Z,9.00
2022-09-27T20:43:45.576Z,9.30
2022-09-27T20:46:14.268Z,9.40
2022-09-27T20:48:43.382Z,9.50
2022-09-27T20:51:14.175Z,9.50
2022-09-27T20:53:42.140Z,9.60
2022-09-27T20:56:16.841Z,9.60
2022-09-27T20:58:44.489Z,9.50
2022-09-27T21:01:12.294Z,9.50
2022-09-27T21:03:40.002Z,9.50
2022-09-27T21:06:13.695Z,9.60
2022-09-27T21:08:41.791Z,9.60
2022-09-27T21:11:10.502Z,9.60
2022-09-27T21:13:39.626Z,9.70
2022-09-27T21:16:08.463Z,9.80
2022-09-27T21:18:36.602Z,9.90
2022-09-27T21:21:05.762Z,10.10
2022-09-27T21:23:35.580Z,10.10
2022-09-27T21:26:04.431Z,10.30
2022-09-27T21:28:32.906Z,10.30
2022-09-27T21:31:02.454Z,10.30
2022-09-27T21:33:30.204Z,10.30
2022-09-27T21:35:58.135Z,10.30
2022-09-27T21:38:25.826Z,10.30
2022-09-27T21:40:58.993Z,10.30
2022-09-27T21:43:27.358Z,10.30
2022-09-27T21:45:55.342Z,10.30
2022-09-27T21:48:23.016Z,10.20
2022-09-27T21:50:50.693Z,10.10
2022-09-27T21:53:18.350Z,10.00
2022-09-27T21:55:54.666Z,9.90
2022-09-27T21:58:23.708Z,9.90
2022-09-27T22:00:51.455Z,9.90
2022-09-27T22:03:20.266Z,9.90
2022-09-27T22:05:48.243Z,9.90
2022-09-27T22:08:16.688Z,10.00
2022-09-27T22:10:45.038Z,10.00
2022-09-27T22:13:13.039Z,10.00
2022-09-27T22:15:42.044Z,10.10
2022-09-27T22:18:09.722Z,10.10
2022-09-27T22:20:37.386Z,10.20
2022-09-27T22:23:05.056Z,10.20
2022-09-27T22:25:32.770Z,10.40
2022-09-27T22:28:00.598Z,10.40
2022-09-27T22:30:28.322Z,10.40
2022-09-27T22:32:57.345Z,10.50
2022-09-27T22:35:25.020Z,10.50
2022-09-27T22:37:52.728Z,10.60
2022-09-27T22:40:20.743Z,10.60
2022-09-27T22:42:48.393Z,10.60
2022-09-27T22:45:16.414Z,10.60
2022-09-27T22:47:44.353Z,10.70
2022-09-27T22:50:13.376Z,10.60
2022-09-27T22:52:41.025Z,10.60
2022-09-27T22:55:09.090Z,10.60
2022-09-27T22:57:36.742Z,10.50
2022-09-27T23:00:05.347Z,10.40
2022-09-27T23:02:33.025Z,10.30
2022-09-27T23:05:00.685Z,10.20
2022-09-27T23:07:29.691Z,10.20
2022-09-27T23:09:57.379Z,10.20
2022-09-27T23:12:25.029Z,10.20
2022-09-27T23:14:52.697Z,10.20
2022-09-27T23:17:20.358Z,10.20
2022-09-27T23:19:48.046Z,10.10
2022-09-27T23:22:15.714Z,10.20
2022-09-27T23:24:44.722Z,10.10
2022-09-27T23:27:38.148Z,10.20
2022-09-27T23:30:06.259Z,10.30
2022-09-27T23:32:34.095Z,10.30
2022-09-27T23:35:01.774Z,10.10
2022-09-27T23:37:29.441Z,10.10
2022-09-27T23:39:58.419Z,10.00
2022-09-27T23:42:26.962Z,9.90
2022-09-27T23:44:56.040Z,9.90
2022-09-27T23:47:23.712Z,9.80
2022-09-27T23:49:51.371Z,9.80
2022-09-27T23:52:19.049Z,9.80
2022-09-27T23:54:46.902Z,9.80
2022-09-27T23:57:15.911Z,9.70
2022-09-27T23:59:43.583Z,9.60
